sensor_id;sensor_type;location;lat;lon;timestamp;P1;durP1;ratioP1;P2;durP2;ratioP2
9657;SDS011;4867;48.112;11.622;2022-08-20T00:01:36;14.20;;;12.90;;
9657;SDS011;4867;48.112;11.622;2022-08-20T00:04:04;14.43;;;13.33;;
9657;SDS011;4867;48.112;11.622;2022-08-20T00:06:32;14.67;;;13.47;;
9657;SDS011;4867;48.112;11.622;2022-08-20T00:09:00;15.10;;;13.80;;
9657;SDS011;4867;48.112;11.622;2022-08-20T00:11:28;14.23;;;12.93;;
9657;SDS011;4867;48.112;11.622;2022-08-20T00:14:00;14.33;;;13.13;;
9657;SDS011;4867;48.112;11.622;2022-08-20T00:16:31;15.00;;;13.77;;
9657;SDS011;4867;48.112;11.622;2022-08-20T00:19:00;15.77;;;14.47;;
9657;SDS011;4867;48.112;11.622;2022-08-20T00:21:29;14.87;;;13.40;;
9657;SDS011;4867;48.112;11.622;2022-08-20T00:23:57;15.00;;;13.70;;
9657;SDS011;4867;48.112;11.622;2022-08-20T00:26:24;15.23;;;13.80;;
9657;SDS011;4867;48.112;11.622;2022-08-20T00:28:52;14.57;;;13.27;;
9657;SDS011;4867;48.112;11.622;2022-08-20T00:31:21;14.60;;;13.40;;
9657;SDS011;4867;48.112;11.622;2022-08-20T00:33:49;14.80;;;13.50;;
9657;SDS011;4867;48.112;11.622;2022-08-20T00:36:17;14.30;;;13.10;;
9657;SDS011;4867;48.112;11.622;2022-08-20T00:38:46;14.53;;;13.23;;
9657;SDS011;4867;48.112;11.622;2022-08-20T00:41:16;13.57;;;12.47;;
9657;SDS011;4867;48.112;11.622;2022-08-20T00:46:27;14.57;;;13.27;;
9657;SDS011;4867;48.112;11.622;2022-08-20T00:48:58;15.37;;;13.77;;
9657;SDS011;4867;48.112;11.622;2022-08-20T00:54:07;15.60;;;14.30;;
9657;SDS011;4867;48.112;11.622;2022-08-20T00:56:36;16.53;;;14.93;;
9657;SDS011;4867;48.112;11.622;2022-08-20T00:59:06;16.00;;;14.60;;
9657;SDS011;4867;48.112;11.622;2022-08-20T01:01:38;15.73;;;14.30;;
9657;SDS011;4867;48.112;11.622;2022-08-20T01:04:22;17.30;;;15.83;;
9657;SDS011;4867;48.112;11.622;2022-08-20T01:06:53;18.20;;;16.60;;
9657;SDS011;4867;48.112;11.622;2022-08-20T01:09:21;17.57;;;15.97;;
9657;SDS011;4867;48.112;11.622;2022-08-20T01:12:09;18.50;;;16.90;;
9657;SDS011;4867;48.112;11.622;2022-08-20T01:14:37;18.67;;;16.87;;
9657;SDS011;4867;48.112;11.622;2022-08-20T01:17:15;18.93;;;17.23;;
9657;SDS011;4867;48.112;11.622;2022-08-20T01:20:00;18.97;;;17.37;;
9657;SDS011;4867;48.112;11.622;2022-08-20T01:22:37;19.77;;;17.87;;
9657;SDS011;4867;48.112;11.622;2022-08-20T01:25:26;19.63;;;17.73;;
9657;SDS011;4867;48.112;11.622;2022-08-20T01:28:03;18.93;;;17.27;;
9657;SDS011;4867;48.112;11.622;2022-08-20T01:30:31;19.97;;;18.07;;
9657;SDS011;4867;48.112;11.622;2022-08-20T01:32:59;20.03;;;18.13;;
9657;SDS011;4867;48.112;11.622;2022-08-20T01:35:27;19.97;;;18.17;;
9657;SDS011;4867;48.112;11.622;2022-08-20T01:37:54;20.30;;;18.50;;
9657;SDS011;4867;48.112;11.622;2022-08-20T01:41:24;20.50;;;18.70;;
9657;SDS011;4867;48.112;11.622;2022-08-20T01:43:20;20.20;;;18.40;;
9657;SDS011;4867;48.112;11.622;2022-08-20T01:45:50;21.17;;;19.27;;
9657;SDS011;4867;48.112;11.622;2022-08-20T01:48:18;21.40;;;19.40;;
9657;SDS011;4867;48.112;11.622;2022-08-20T01:50:48;20.53;;;18.60;;
9657;SDS011;4867;48.112;11.622;2022-08-20T01:53:40;20.50;;;18.53;;
9657;SDS011;4867;48.112;11.622;2022-08-20T01:56:11;21.87;;;19.87;;
9657;SDS011;4867;48.112;11.622;2022-08-20T01:58:43;20.90;;;19.00;;
9657;SDS011;4867;48.112;11.622;2022-08-20T02:01:29;21.70;;;19.70;;
9657;SDS011;4867;48.112;11.622;2022-08-20T02:04:12;21.37;;;19.37;;
9657;SDS011;4867;48.112;11.622;2022-08-20T02:06:46;22.37;;;20.23;;
9657;SDS011;4867;48.112;11.622;2022-08-20T02:09:23;23.40;;;21.20;;
9657;SDS011;4867;48.112;11.622;2022-08-20T02:11:55;23.33;;;21.20;;
9657;SDS011;4867;48.112;11.622;2022-08-20T02:14:23;23.27;;;21.10;;
9657;SDS011;4867;48.112;11.622;2022-08-20T02:16:51;23.50;;;21.13;;
9657;SDS011;4867;48.112;11.622;2022-08-20T02:19:39;22.07;;;19.93;;
9657;SDS011;4867;48.112;11.622;2022-08-20T02:22:17;23.50;;;21.10;;
9657;SDS011;4867;48.112;11.622;2022-08-20T02:24:52;22.50;;;20.37;;
9657;SDS011;4867;48.112;11.622;2022-08-20T02:27:20;24.47;;;22.17;;
9657;SDS011;4867;48.112;11.622;2022-08-20T02:29:49;23.63;;;21.50;;
9657;SDS011;4867;48.112;11.622;2022-08-20T02:32:17;24.73;;;22.43;;
9657;SDS011;4867;48.112;11.622;2022-08-20T02:34:59;24.03;;;21.73;;
9657;SDS011;4867;48.112;11.622;2022-08-20T02:37:29;24.63;;;22.23;;
9657;SDS011;4867;48.112;11.622;2022-08-20T02:39:57;24.73;;;22.23;;
9657;SDS011;4867;48.112;11.622;2022-08-20T02:42:24;23.73;;;21.43;;
9657;SDS011;4867;48.112;11.622;2022-08-20T02:44:52;25.27;;;22.83;;
9657;SDS011;4867;48.112;11.622;2022-08-20T02:47:20;24.53;;;22.23;;
9657;SDS011;4867;48.112;11.622;2022-08-20T02:49:47;23.93;;;21.63;;
9657;SDS011;4867;48.112;11.622;2022-08-20T02:52:14;24.77;;;22.27;;
9657;SDS011;4867;48.112;11.622;2022-08-20T02:54:41;25.60;;;23.10;;
9657;SDS011;4867;48.112;11.622;2022-08-20T02:57:13;24.80;;;22.40;;
9657;SDS011;4867;48.112;11.622;2022-08-20T02:59:42;26.13;;;23.47;;
9657;SDS011;4867;48.112;11.622;2022-08-20T03:02:10;23.33;;;21.10;;
9657;SDS011;4867;48.112;11.622;2022-08-20T03:04:37;25.57;;;23.03;;
9657;SDS011;4867;48.112;11.622;2022-08-20T03:07:04;24.37;;;21.97;;
9657;SDS011;4867;48.112;11.622;2022-08-20T03:09:31;25.23;;;22.87;;
9657;SDS011;4867;48.112;11.622;2022-08-20T03:11:58;25.13;;;22.73;;
9657;SDS011;4867;48.112;11.622;2022-08-20T03:14:26;25.23;;;22.83;;
9657;SDS011;4867;48.112;11.622;2022-08-20T03:16:54;24.33;;;22.07;;
9657;SDS011;4867;48.112;11.622;2022-08-20T03:19:21;25.77;;;23.37;;
9657;SDS011;4867;48.112;11.622;2022-08-20T03:21:49;26.57;;;23.73;;
9657;SDS011;4867;48.112;11.622;2022-08-20T03:24:16;27.10;;;24.30;;
9657;SDS011;4867;48.112;11.622;2022-08-20T03:26:44;26.20;;;23.60;;
9657;SDS011;4867;48.112;11.622;2022-08-20T03:29:15;26.73;;;24.07;;
9657;SDS011;4867;48.112;11.622;2022-08-20T03:31:42;26.07;;;23.33;;
9657;SDS011;4867;48.112;11.622;2022-08-20T03:34:09;27.23;;;24.30;;
9657;SDS011;4867;48.112;11.622;2022-08-20T03:36:37;27.23;;;24.33;;
9657;SDS011;4867;48.112;11.622;2022-08-20T03:39:04;26.43;;;23.93;;
9657;SDS011;4867;48.112;11.622;2022-08-20T03:41:36;26.03;;;23.53;;
9657;SDS011;4867;48.112;11.622;2022-08-20T03:44:04;26.17;;;23.57;;
9657;SDS011;4867;48.112;11.622;2022-08-20T03:46:33;27.63;;;24.87;;
9657;SDS011;4867;48.112;11.622;2022-08-20T03:49:00;27.30;;;24.40;;
9657;SDS011;4867;48.112;11.622;2022-08-20T03:51:27;27.07;;;24.30;;
9657;SDS011;4867;48.112;11.622;2022-08-20T03:53:55;25.93;;;23.23;;
9657;SDS011;4867;48.112;11.622;2022-08-20T03:56:22;27.20;;;24.30;;
9657;SDS011;4867;48.112;11.622;2022-08-20T03:58:50;27.03;;;24.33;;
9657;SDS011;4867;48.112;11.622;2022-08-20T04:01:17;26.60;;;23.90;;
9657;SDS011;4867;48.112;11.622;2022-08-20T04:04:05;27.13;;;24.53;;
9657;SDS011;4867;48.112;11.622;2022-08-20T04:06:38;24.93;;;22.60;;
9657;SDS011;4867;48.112;11.622;2022-08-20T04:09:07;26.73;;;24.03;;
9657;SDS011;4867;48.112;11.622;2022-08-20T04:11:40;27.10;;;24.40;;
9657;SDS011;4867;48.112;11.622;2022-08-20T04:14:08;26.07;;;23.47;;
9657;SDS011;4867;48.112;11.622;2022-08-20T04:16:42;27.27;;;24.47;;
9657;SDS011;4867;48.112;11.622;2022-08-20T04:19:12;28.17;;;25.27;;
9657;SDS011;4867;48.112;11.622;2022-08-20T04:21:40;28.30;;;25.40;;
9657;SDS011;4867;48.112;11.622;2022-08-20T04:24:08;28.33;;;25.17;;
9657;SDS011;4867;48.112;11.622;2022-08-20T04:26:54;26.73;;;23.93;;
9657;SDS011;4867;48.112;11.622;2022-08-20T04:29:24;26.90;;;24.23;;
9657;SDS011;4867;48.112;11.622;2022-08-20T04:31:57;27.37;;;24.63;;
9657;SDS011;4867;48.112;11.622;2022-08-20T04:34:28;27.30;;;24.60;;
9657;SDS011;4867;48.112;11.622;2022-08-20T04:36:55;27.67;;;23.80;;
9657;SDS011;4867;48.112;11.622;2022-08-20T04:39:22;25.30;;;22.83;;
9657;SDS011;4867;48.112;11.622;2022-08-20T04:41:50;24.90;;;22.53;;
9657;SDS011;4867;48.112;11.622;2022-08-20T04:44:17;25.40;;;22.90;;
9657;SDS011;4867;48.112;11.622;2022-08-20T04:46:49;24.80;;;22.33;;
9657;SDS011;4867;48.112;11.622;2022-08-20T04:49:19;25.17;;;22.70;;
9657;SDS011;4867;48.112;11.622;2022-08-20T04:51:50;27.20;;;24.47;;
9657;SDS011;4867;48.112;11.622;2022-08-20T04:54:18;26.53;;;23.57;;
9657;SDS011;4867;48.112;11.622;2022-08-20T04:56:47;28.23;;;25.40;;
9657;SDS011;4867;48.112;11.622;2022-08-20T04:59:14;26.83;;;24.03;;
9657;SDS011;4867;48.112;11.622;2022-08-20T05:01:41;25.67;;;22.93;;
9657;SDS011;4867;48.112;11.622;2022-08-20T05:04:08;26.40;;;22.67;;
9657;SDS011;4867;48.112;11.622;2022-08-20T05:06:35;25.70;;;23.10;;
9657;SDS011;4867;48.112;11.622;2022-08-20T05:09:02;25.47;;;22.87;;
9657;SDS011;4867;48.112;11.622;2022-08-20T05:11:30;26.80;;;24.13;;
9657;SDS011;4867;48.112;11.622;2022-08-20T05:14:02;24.47;;;21.77;;
9657;SDS011;4867;48.112;11.622;2022-08-20T05:16:37;24.87;;;22.57;;
9657;SDS011;4867;48.112;11.622;2022-08-20T05:19:07;24.57;;;22.27;;
9657;SDS011;4867;48.112;11.622;2022-08-20T05:21:37;23.90;;;21.40;;
9657;SDS011;4867;48.112;11.622;2022-08-20T05:24:04;23.90;;;21.67;;
9657;SDS011;4867;48.112;11.622;2022-08-20T05:26:32;23.43;;;21.17;;
9657;SDS011;4867;48.112;11.622;2022-08-20T05:28:59;24.10;;;21.60;;
9657;SDS011;4867;48.112;11.622;2022-08-20T05:31:28;23.83;;;21.53;;
9657;SDS011;4867;48.112;11.622;2022-08-20T05:34:03;23.40;;;21.23;;
9657;SDS011;4867;48.112;11.622;2022-08-20T05:36:37;28.17;;;25.30;;
9657;SDS011;4867;48.112;11.622;2022-08-20T05:39:05;23.50;;;21.30;;
9657;SDS011;4867;48.112;11.622;2022-08-20T05:41:34;23.70;;;21.30;;
9657;SDS011;4867;48.112;11.622;2022-08-20T05:44:01;24.50;;;22.10;;
9657;SDS011;4867;48.112;11.622;2022-08-20T05:46:29;24.97;;;22.50;;
9657;SDS011;4867;48.112;11.622;2022-08-20T05:48:57;23.13;;;21.00;;
9657;SDS011;4867;48.112;11.622;2022-08-20T05:51:30;23.23;;;21.03;;
9657;SDS011;4867;48.112;11.622;2022-08-20T05:53:57;22.70;;;20.40;;
9657;SDS011;4867;48.112;11.622;2022-08-20T05:56:25;21.97;;;19.90;;
9657;SDS011;4867;48.112;11.622;2022-08-20T05:58:56;21.97;;;19.97;;
9657;SDS011;4867;48.112;11.622;2022-08-20T06:01:26;22.47;;;20.30;;
9657;SDS011;4867;48.112;11.622;2022-08-20T06:03:53;22.43;;;20.30;;
9657;SDS011;4867;48.112;11.622;2022-08-20T06:06:38;21.43;;;19.47;;
9657;SDS011;4867;48.112;11.622;2022-08-20T06:09:12;22.00;;;19.90;;
9657;SDS011;4867;48.112;11.622;2022-08-20T06:12:01;21.20;;;19.30;;
9657;SDS011;4867;48.112;11.622;2022-08-20T06:14:31;21.40;;;19.40;;
9657;SDS011;4867;48.112;11.622;2022-08-20T06:17:04;20.93;;;18.93;;
9657;SDS011;4867;48.112;11.622;2022-08-20T06:19:39;21.17;;;19.07;;
9657;SDS011;4867;48.112;11.622;2022-08-20T06:22:09;22.33;;;20.33;;
9657;SDS011;4867;48.112;11.622;2022-08-20T06:24:47;20.00;;;18.10;;
9657;SDS011;4867;48.112;11.622;2022-08-20T06:27:14;21.47;;;19.47;;
9657;SDS011;4867;48.112;11.622;2022-08-20T06:29:42;22.23;;;20.03;;
9657;SDS011;4867;48.112;11.622;2022-08-20T06:32:10;21.70;;;19.37;;
9657;SDS011;4867;48.112;11.622;2022-08-20T06:34:37;20.77;;;18.90;;
9657;SDS011;4867;48.112;11.622;2022-08-20T06:37:20;20.50;;;18.70;;
9657;SDS011;4867;48.112;11.622;2022-08-20T06:39:58;21.67;;;19.60;;
9657;SDS011;4867;48.112;11.622;2022-08-20T06:42:27;19.60;;;17.80;;
9657;SDS011;4867;48.112;11.622;2022-08-20T06:44:54;21.27;;;18.30;;
9657;SDS011;4867;48.112;11.622;2022-08-20T06:47:21;19.37;;;17.57;;
9657;SDS011;4867;48.112;11.622;2022-08-20T06:49:48;20.50;;;18.43;;
9657;SDS011;4867;48.112;11.622;2022-08-20T06:52:15;19.77;;;17.87;;
9657;SDS011;4867;48.112;11.622;2022-08-20T06:54:44;19.33;;;17.53;;
9657;SDS011;4867;48.112;11.622;2022-08-20T06:57:11;18.47;;;16.77;;
9657;SDS011;4867;48.112;11.622;2022-08-20T06:59:38;19.20;;;17.40;;
9657;SDS011;4867;48.112;11.622;2022-08-20T07:02:06;19.67;;;17.70;;
9657;SDS011;4867;48.112;11.622;2022-08-20T07:04:33;19.30;;;17.50;;
9657;SDS011;4867;48.112;11.622;2022-08-20T07:07:00;18.37;;;16.63;;
9657;SDS011;4867;48.112;11.622;2022-08-20T07:09:27;19.10;;;17.33;;
9657;SDS011;4867;48.112;11.622;2022-08-20T07:11:54;19.50;;;17.70;;
9657;SDS011;4867;48.112;11.622;2022-08-20T07:14:21;19.17;;;17.27;;
9657;SDS011;4867;48.112;11.622;2022-08-20T07:16:48;18.60;;;16.90;;
9657;SDS011;4867;48.112;11.622;2022-08-20T07:19:15;17.33;;;15.73;;
9657;SDS011;4867;48.112;11.622;2022-08-20T07:21:43;17.57;;;15.87;;
9657;SDS011;4867;48.112;11.622;2022-08-20T07:24:10;16.67;;;15.17;;
9657;SDS011;4867;48.112;11.622;2022-08-20T07:26:38;16.20;;;14.67;;
9657;SDS011;4867;48.112;11.622;2022-08-20T07:29:06;18.30;;;16.50;;
9657;SDS011;4867;48.112;11.622;2022-08-20T07:31:32;17.80;;;16.20;;
9657;SDS011;4867;48.112;11.622;2022-08-20T07:34:18;17.03;;;15.37;;
9657;SDS011;4867;48.112;11.622;2022-08-20T07:36:46;17.77;;;16.10;;
9657;SDS011;4867;48.112;11.622;2022-08-20T07:39:14;16.57;;;15.07;;
9657;SDS011;4867;48.112;11.622;2022-08-20T07:41:42;17.33;;;15.73;;
9657;SDS011;4867;48.112;11.622;2022-08-20T07:44:22;18.17;;;16.47;;
9657;SDS011;4867;48.112;11.622;2022-08-20T07:46:57;15.33;;;13.83;;
9657;SDS011;4867;48.112;11.622;2022-08-20T07:49:24;16.10;;;14.63;;
9657;SDS011;4867;48.112;11.622;2022-08-20T07:51:54;16.73;;;15.13;;
9657;SDS011;4867;48.112;11.622;2022-08-20T07:54:21;17.30;;;15.53;;
9657;SDS011;4867;48.112;11.622;2022-08-20T07:56:48;16.50;;;15.13;;
9657;SDS011;4867;48.112;11.622;2022-08-20T07:59:15;16.20;;;14.77;;
9657;SDS011;4867;48.112;11.622;2022-08-20T08:01:43;16.77;;;15.27;;
9657;SDS011;4867;48.112;11.622;2022-08-20T08:04:10;17.07;;;15.37;;
9657;SDS011;4867;48.112;11.622;2022-08-20T08:06:37;17.07;;;15.57;;
9657;SDS011;4867;48.112;11.622;2022-08-20T08:09:06;19.73;;;15.70;;
9657;SDS011;4867;48.112;11.622;2022-08-20T08:11:37;16.17;;;14.67;;
9657;SDS011;4867;48.112;11.622;2022-08-20T08:14:11;16.77;;;15.27;;
9657;SDS011;4867;48.112;11.622;2022-08-20T08:16:39;16.87;;;14.57;;
9657;SDS011;4867;48.112;11.622;2022-08-20T08:19:10;16.70;;;15.17;;
9657;SDS011;4867;48.112;11.622;2022-08-20T08:21:43;15.73;;;14.23;;
9657;SDS011;4867;48.112;11.622;2022-08-20T08:24:10;15.63;;;14.07;;
9657;SDS011;4867;48.112;11.622;2022-08-20T08:26:45;15.73;;;14.47;;
9657;SDS011;4867;48.112;11.622;2022-08-20T08:29:15;16.27;;;14.77;;
9657;SDS011;4867;48.112;11.622;2022-08-20T08:31:43;16.07;;;14.40;;
9657;SDS011;4867;48.112;11.622;2022-08-20T08:34:10;14.90;;;13.40;;
9657;SDS011;4867;48.112;11.622;2022-08-20T08:36:38;18.20;;;15.17;;
9657;SDS011;4867;48.112;11.622;2022-08-20T08:39:13;16.20;;;14.63;;
9657;SDS011;4867;48.112;11.622;2022-08-20T08:41:41;16.10;;;14.57;;
9657;SDS011;4867;48.112;11.622;2022-08-20T08:44:14;15.60;;;14.23;;
9657;SDS011;4867;48.112;11.622;2022-08-20T08:47:17;15.47;;;13.97;;
9657;SDS011;4867;48.112;11.622;2022-08-20T08:49:57;16.10;;;14.60;;
9657;SDS011;4867;48.112;11.622;2022-08-20T08:52:27;15.20;;;13.80;;
9657;SDS011;4867;48.112;11.622;2022-08-20T08:54:58;15.33;;;14.03;;
9657;SDS011;4867;48.112;11.622;2022-08-20T08:57:27;17.20;;;15.63;;
9657;SDS011;4867;48.112;11.622;2022-08-20T08:59:59;15.63;;;14.00;;
9657;SDS011;4867;48.112;11.622;2022-08-20T09:02:30;17.37;;;15.30;;
9657;SDS011;4867;48.112;11.622;2022-08-20T09:05:00;15.67;;;14.10;;
9657;SDS011;4867;48.112;11.622;2022-08-20T09:07:30;16.70;;;15.10;;
9657;SDS011;4867;48.112;11.622;2022-08-20T09:10:00;17.03;;;15.50;;
9657;SDS011;4867;48.112;11.622;2022-08-20T09:12:28;16.73;;;15.23;;
9657;SDS011;4867;48.112;11.622;2022-08-20T09:14:55;17.90;;;16.20;;
9657;SDS011;4867;48.112;11.622;2022-08-20T09:17:22;15.63;;;14.23;;
9657;SDS011;4867;48.112;11.622;2022-08-20T09:19:50;16.87;;;15.27;;
9657;SDS011;4867;48.112;11.622;2022-08-20T09:22:18;16.43;;;14.90;;
9657;SDS011;4867;48.112;11.622;2022-08-20T09:24:48;18.10;;;16.20;;
9657;SDS011;4867;48.112;11.622;2022-08-20T09:27:15;18.77;;;17.03;;
9657;SDS011;4867;48.112;11.622;2022-08-20T09:29:43;18.17;;;16.57;;
9657;SDS011;4867;48.112;11.622;2022-08-20T09:32:20;18.40;;;16.63;;
9657;SDS011;4867;48.112;11.622;2022-08-20T09:34:50;20.50;;;18.30;;
9657;SDS011;4867;48.112;11.622;2022-08-20T09:37:23;18.47;;;16.87;;
9657;SDS011;4867;48.112;11.622;2022-08-20T09:40:04;18.03;;;16.37;;
9657;SDS011;4867;48.112;11.622;2022-08-20T09:42:35;19.97;;;18.03;;
9657;SDS011;4867;48.112;11.622;2022-08-20T09:45:07;18.50;;;16.80;;
9657;SDS011;4867;48.112;11.622;2022-08-20T09:47:36;19.60;;;17.90;;
9657;SDS011;4867;48.112;11.622;2022-08-20T09:50:23;18.00;;;16.50;;
9657;SDS011;4867;48.112;11.622;2022-08-20T09:52:51;18.80;;;17.10;;
9657;SDS011;4867;48.112;11.622;2022-08-20T09:55:28;19.13;;;17.43;;
9657;SDS011;4867;48.112;11.622;2022-08-20T09:58:39;21.73;;;19.70;;
9657;SDS011;4867;48.112;11.622;2022-08-20T10:01:11;19.13;;;17.53;;
9657;SDS011;4867;48.112;11.622;2022-08-20T10:03:41;19.17;;;17.57;;
9657;SDS011;4867;48.112;11.622;2022-08-20T10:06:09;20.27;;;18.47;;
9657;SDS011;4867;48.112;11.622;2022-08-20T10:08:38;21.30;;;19.40;;
9657;SDS011;4867;48.112;11.622;2022-08-20T10:11:05;19.00;;;17.50;;
9657;SDS011;4867;48.112;11.622;2022-08-20T10:13:32;21.57;;;19.57;;
9657;SDS011;4867;48.112;11.622;2022-08-20T10:15:59;21.43;;;19.43;;
9657;SDS011;4867;48.112;11.622;2022-08-20T10:18:26;20.77;;;18.87;;
9657;SDS011;4867;48.112;11.622;2022-08-20T10:20:53;22.03;;;20.03;;
9657;SDS011;4867;48.112;11.622;2022-08-20T10:23:20;18.10;;;16.57;;
9657;SDS011;4867;48.112;11.622;2022-08-20T10:25:47;19.80;;;18.10;;
9657;SDS011;4867;48.112;11.622;2022-08-20T10:28:14;19.93;;;18.23;;
9657;SDS011;4867;48.112;11.622;2022-08-20T10:30:41;17.97;;;16.43;;
9657;SDS011;4867;48.112;11.622;2022-08-20T10:33:11;20.67;;;18.97;;
9657;SDS011;4867;48.112;11.622;2022-08-20T10:35:39;21.10;;;19.30;;
9657;SDS011;4867;48.112;11.622;2022-08-20T10:38:06;20.60;;;18.77;;
9657;SDS011;4867;48.112;11.622;2022-08-20T10:40:33;20.47;;;18.60;;
9657;SDS011;4867;48.112;11.622;2022-08-20T10:43:00;19.83;;;18.13;;
9657;SDS011;4867;48.112;11.622;2022-08-20T10:45:27;21.00;;;19.10;;
9657;SDS011;4867;48.112;11.622;2022-08-20T10:47:54;19.03;;;17.23;;
9657;SDS011;4867;48.112;11.622;2022-08-20T10:50:24;17.83;;;16.27;;
9657;SDS011;4867;48.112;11.622;2022-08-20T10:52:55;17.27;;;15.87;;
9657;SDS011;4867;48.112;11.622;2022-08-20T10:55:23;18.23;;;16.73;;
9657;SDS011;4867;48.112;11.622;2022-08-20T10:57:50;18.83;;;17.23;;
9657;SDS011;4867;48.112;11.622;2022-08-20T11:00:18;19.83;;;18.13;;
9657;SDS011;4867;48.112;11.622;2022-08-20T11:02:47;18.90;;;17.30;;
9657;SDS011;4867;48.112;11.622;2022-08-20T11:05:14;20.97;;;19.27;;
9657;SDS011;4867;48.112;11.622;2022-08-20T11:07:42;22.77;;;20.80;;
9657;SDS011;4867;48.112;11.622;2022-08-20T11:10:21;21.70;;;19.80;;
9657;SDS011;4867;48.112;11.622;2022-08-20T11:12:50;20.63;;;18.83;;
9657;SDS011;4867;48.112;11.622;2022-08-20T11:15:17;21.80;;;19.80;;
9657;SDS011;4867;48.112;11.622;2022-08-20T11:17:44;23.70;;;21.57;;
9657;SDS011;4867;48.112;11.622;2022-08-20T11:20:12;19.53;;;18.03;;
9657;SDS011;4867;48.112;11.622;2022-08-20T11:22:41;21.23;;;19.43;;
9657;SDS011;4867;48.112;11.622;2022-08-20T11:25:08;28.23;;;22.83;;
9657;SDS011;4867;48.112;11.622;2022-08-20T11:27:43;30.27;;;27.20;;
9657;SDS011;4867;48.112;11.622;2022-08-20T11:30:15;29.57;;;26.60;;
9657;SDS011;4867;48.112;11.622;2022-08-20T11:32:45;32.70;;;27.73;;
9657;SDS011;4867;48.112;11.622;2022-08-20T11:35:13;24.27;;;22.13;;
9657;SDS011;4867;48.112;11.622;2022-08-20T11:38:00;23.57;;;21.47;;
9657;SDS011;4867;48.112;11.622;2022-08-20T11:40:30;24.43;;;22.30;;
9657;SDS011;4867;48.112;11.622;2022-08-20T11:42:58;23.13;;;21.27;;
9657;SDS011;4867;48.112;11.622;2022-08-20T11:45:43;22.43;;;20.57;;
9657;SDS011;4867;48.112;11.622;2022-08-20T11:48:11;23.87;;;21.87;;
9657;SDS011;4867;48.112;11.622;2022-08-20T11:50:38;23.97;;;21.87;;
9657;SDS011;4867;48.112;11.622;2022-08-20T11:53:05;25.13;;;23.00;;
9657;SDS011;4867;48.112;11.622;2022-08-20T11:55:33;26.47;;;24.13;;
9657;SDS011;4867;48.112;11.622;2022-08-20T11:58:01;25.97;;;23.70;;
9657;SDS011;4867;48.112;11.622;2022-08-20T12:00:28;25.00;;;22.60;;
9657;SDS011;4867;48.112;11.622;2022-08-20T12:03:02;22.93;;;21.03;;
9657;SDS011;4867;48.112;11.622;2022-08-20T12:05:34;23.47;;;21.37;;
9657;SDS011;4867;48.112;11.622;2022-08-20T12:08:05;24.93;;;22.83;;
9657;SDS011;4867;48.112;11.622;2022-08-20T12:10:34;23.50;;;21.27;;
9657;SDS011;4867;48.112;11.622;2022-08-20T12:13:02;23.10;;;21.20;;
9657;SDS011;4867;48.112;11.622;2022-08-20T12:15:30;23.47;;;21.47;;
9657;SDS011;4867;48.112;11.622;2022-08-20T12:17:58;22.93;;;21.03;;
9657;SDS011;4867;48.112;11.622;2022-08-20T12:20:27;22.57;;;20.67;;
9657;SDS011;4867;48.112;11.622;2022-08-20T12:22:54;20.27;;;18.33;;
9657;SDS011;4867;48.112;11.622;2022-08-20T12:25:21;18.87;;;17.27;;
9657;SDS011;4867;48.112;11.622;2022-08-20T12:27:48;17.00;;;15.70;;
9657;SDS011;4867;48.112;11.622;2022-08-20T12:30:16;18.40;;;16.80;;
9657;SDS011;4867;48.112;11.622;2022-08-20T12:32:45;15.67;;;14.37;;
9657;SDS011;4867;48.112;11.622;2022-08-20T12:35:13;14.37;;;13.20;;
9657;SDS011;4867;48.112;11.622;2022-08-20T12:37:41;15.60;;;14.20;;
9657;SDS011;4867;48.112;11.622;2022-08-20T12:40:14;15.57;;;14.30;;
9657;SDS011;4867;48.112;11.622;2022-08-20T12:42:57;12.93;;;11.83;;
9657;SDS011;4867;48.112;11.622;2022-08-20T12:45:25;13.23;;;12.17;;
9657;SDS011;4867;48.112;11.622;2022-08-20T12:47:52;12.43;;;11.43;;
9657;SDS011;4867;48.112;11.622;2022-08-20T12:50:32;12.63;;;11.53;;
9657;SDS011;4867;48.112;11.622;2022-08-20T12:53:00;13.40;;;12.20;;
9657;SDS011;4867;48.112;11.622;2022-08-20T12:55:28;13.37;;;12.17;;
9657;SDS011;4867;48.112;11.622;2022-08-20T12:57:56;12.93;;;11.83;;
9657;SDS011;4867;48.112;11.622;2022-08-20T13:00:33;12.50;;;11.33;;
9657;SDS011;4867;48.112;11.622;2022-08-20T13:03:03;11.90;;;10.93;;
9657;SDS011;4867;48.112;11.622;2022-08-20T13:05:33;13.10;;;11.97;;
9657;SDS011;4867;48.112;11.622;2022-08-20T13:08:01;13.17;;;11.97;;
9657;SDS011;4867;48.112;11.622;2022-08-20T13:10:37;12.60;;;11.50;;
9657;SDS011;4867;48.112;11.622;2022-08-20T13:13:12;12.87;;;11.77;;
9657;SDS011;4867;48.112;11.622;2022-08-20T13:15:45;12.73;;;11.63;;
9657;SDS011;4867;48.112;11.622;2022-08-20T13:18:12;12.87;;;11.70;;
9657;SDS011;4867;48.112;11.622;2022-08-20T13:20:39;13.73;;;12.53;;
9657;SDS011;4867;48.112;11.622;2022-08-20T13:23:06;11.70;;;10.70;;
9657;SDS011;4867;48.112;11.622;2022-08-20T13:25:33;11.88;;;10.98;;
9657;SDS011;4867;48.112;11.622;2022-08-20T13:28:01;10.97;;;9.97;;
9657;SDS011;4867;48.112;11.622;2022-08-20T13:30:30;10.30;;;9.50;;
9657;SDS011;4867;48.112;11.622;2022-08-20T13:32:58;11.30;;;10.40;;
9657;SDS011;4867;48.112;11.622;2022-08-20T13:35:25;11.27;;;10.27;;
9657;SDS011;4867;48.112;11.622;2022-08-20T13:37:52;11.23;;;9.70;;
9657;SDS011;4867;48.112;11.622;2022-08-20T13:40:19;9.70;;;8.97;;
9657;SDS011;4867;48.112;11.622;2022-08-20T13:42:46;10.65;;;9.75;;
9657;SDS011;4867;48.112;11.622;2022-08-20T13:45:13;10.50;;;9.60;;
9657;SDS011;4867;48.112;11.622;2022-08-20T13:47:41;10.17;;;9.37;;
9657;SDS011;4867;48.112;11.622;2022-08-20T13:50:11;10.60;;;9.57;;
9657;SDS011;4867;48.112;11.622;2022-08-20T13:52:42;9.93;;;9.00;;
9657;SDS011;4867;48.112;11.622;2022-08-20T13:55:12;10.25;;;9.07;;
9657;SDS011;4867;48.112;11.622;2022-08-20T13:57:42;10.17;;;9.10;;
9657;SDS011;4867;48.112;11.622;2022-08-20T14:00:11;9.98;;;9.13;;
9657;SDS011;4867;48.112;11.622;2022-08-20T14:02:56;9.50;;;8.60;;
9657;SDS011;4867;48.112;11.622;2022-08-20T14:05:24;9.80;;;8.90;;
9657;SDS011;4867;48.112;11.622;2022-08-20T14:07:50;9.05;;;8.35;;
9657;SDS011;4867;48.112;11.622;2022-08-20T14:10:19;9.15;;;8.45;;
9657;SDS011;4867;48.112;11.622;2022-08-20T14:12:49;9.10;;;8.27;;
9657;SDS011;4867;48.112;11.622;2022-08-20T14:15:17;8.50;;;6.85;;
9657;SDS011;4867;48.112;11.622;2022-08-20T14:17:48;8.02;;;7.38;;
9657;SDS011;4867;48.112;11.622;2022-08-20T14:20:19;7.95;;;7.35;;
9657;SDS011;4867;48.112;11.622;2022-08-20T14:22:48;4.07;;;3.77;;
9657;SDS011;4867;48.112;11.622;2022-08-20T14:25:17;4.00;;;3.70;;
9657;SDS011;4867;48.112;11.622;2022-08-20T14:27:45;2.73;;;2.53;;
9657;SDS011;4867;48.112;11.622;2022-08-20T14:30:15;5.43;;;3.60;;
9657;SDS011;4867;48.112;11.622;2022-08-20T14:32:45;7.70;;;3.20;;
9657;SDS011;4867;48.112;11.622;2022-08-20T14:35:12;4.13;;;3.00;;
9657;SDS011;4867;48.112;11.622;2022-08-20T14:37:41;3.27;;;2.97;;
9657;SDS011;4867;48.112;11.622;2022-08-20T14:40:13;3.60;;;3.03;;
9657;SDS011;4867;48.112;11.622;2022-08-20T14:42:41;7.27;;;3.20;;
9657;SDS011;4867;48.112;11.622;2022-08-20T14:45:13;3.30;;;3.00;;
9657;SDS011;4867;48.112;11.622;2022-08-20T14:47:42;3.67;;;2.90;;
9657;SDS011;4867;48.112;11.622;2022-08-20T14:50:19;5.13;;;3.40;;
9657;SDS011;4867;48.112;11.622;2022-08-20T14:52:50;3.97;;;3.00;;
9657;SDS011;4867;48.112;11.622;2022-08-20T14:55:18;8.23;;;4.13;;
9657;SDS011;4867;48.112;11.622;2022-08-20T14:57:47;5.03;;;3.50;;
9657;SDS011;4867;48.112;11.622;2022-08-20T15:00:16;3.77;;;3.20;;